Time;durP1;ratioP1;P1;durP2;ratioP2;P2;SDS_P1;SDS_P2;PMS_P1;PMS_P2;Temp;Humidity;BMP_temperature;BMP_pressure;BME280_temperature;BME280_humidity;BME280_pressure;Samples;Min_cycle;Max_cycle;Signal;HPM_P1;HPM_P2
2022/07/09 00:00:12;;;;;;;12.13;1.80;;;14.60;99.90;;;;;;5133978;27;20577;-71
2022/07/09 00:02:39;;;;;;;15.23;1.93;;;14.50;99.90;;;;;;5135779;27;20508;-72
2022/07/09 00:05:08;;;;;;;12.37;1.67;;;14.30;1.00;;;;;;5134924;27;20443;-72
2022/07/09 00:07:35;;;;;;;12.10;1.77;;;14.50;1.00;;;;;;5136097;27;20520;-72
2022/07/09 00:10:02;;;;;;;12.30;1.83;;;14.50;1.00;;;;;;5134899;27;20442;-71
2022/07/09 00:12:29;;;;;;;12.73;1.87;;;14.30;1.00;;;;;;5137804;27;20850;-71
2022/07/09 00:14:56;;;;;;;13.50;2.03;;;14.40;1.00;;;;;;5134872;27;20446;-72
2022/07/09 00:17:23;;;;;;;13.10;1.87;;;14.40;1.00;;;;;;5135581;27;20447;-71
2022/07/09 00:19:50;;;;;;;12.50;2.17;;;14.50;1.00;;;;;;5135246;27;20474;-71
2022/07/09 00:22:18;;;;;;;13.60;1.93;;;14.30;1.00;;;;;;5135110;27;20794;-72
2022/07/09 00:24:45;;;;;;;12.17;1.70;;;14.20;1.00;;;;;;5135233;27;20445;-71
2022/07/09 00:27:12;;;;;;;13.20;1.80;;;14.30;18.60;;;;;;5134291;27;20951;-71
2022/07/09 00:29:38;;;;;;;12.80;2.20;;;14.30;1.00;;;;;;5135269;27;20449;-71
2022/07/09 00:32:06;;;;;;;13.07;2.20;;;14.30;1.00;;;;;;5134968;27;20480;-71
2022/07/09 00:34:33;;;;;;;11.80;1.50;;;14.20;1.00;;;;;;5134624;27;20469;-72
2022/07/09 00:37:00;;;;;;;12.10;1.70;;;14.10;99.90;;;;;;5128592;27;20454;-72
2022/07/09 00:39:28;;;;;;;12.23;1.97;;;14.00;99.90;;;;;;5134523;27;20469;-71
2022/07/09 00:42:03;;;;;;;12.00;2.30;;;13.90;1.00;;;;;;5135466;27;20796;-71
2022/07/09 00:44:30;;;;;;;13.23;2.30;;;14.00;1.00;;;;;;5135040;27;20454;-71
2022/07/09 00:46:58;;;;;;;12.20;1.80;;;13.90;1.00;;;;;;5134650;27;20787;-72
2022/07/09 00:49:25;;;;;;;12.33;2.20;;;13.80;1.00;;;;;;5135236;27;20453;-71
2022/07/09 00:51:53;;;;;;;11.93;1.80;;;13.80;99.90;;;;;;5135259;27;20455;-73
2022/07/09 00:54:19;;;;;;;11.40;1.60;;;13.80;99.90;;;;;;5133623;27;20440;-72
2022/07/09 00:56:48;;;;;;;12.97;1.70;;;13.70;99.90;;;;;;5135211;27;20458;-72
2022/07/09 00:59:15;;;;;;;13.40;1.73;;;13.50;23.90;;;;;;5133901;27;20554;-73
2022/07/09 01:01:42;;;;;;;11.60;1.80;;;13.50;99.90;;;;;;5134467;27;20460;-72
2022/07/09 01:04:09;;;;;;;13.20;1.67;;;13.70;1.00;;;;;;5133492;27;20461;-72
2022/07/09 01:06:35;;;;;;;11.60;1.60;;;13.80;99.90;;;;;;5134662;27;20453;-71
2022/07/09 01:09:03;;;;;;;13.47;1.90;;;13.90;99.90;;;;;;5134338;27;20849;-71
2022/07/09 01:11:31;;;;;;;12.10;1.80;;;13.90;1.00;;;;;;5137696;27;20452;-71
2022/07/09 01:13:59;;;;;;;12.07;1.90;;;13.70;99.90;;;;;;5133541;27;20458;-72
2022/07/09 01:16:32;;;;;;;11.20;1.40;;;14.00;1.00;;;;;;5134073;27;20451;-72
2022/07/09 01:18:59;;;;;;;12.00;1.77;;;14.00;99.90;;;;;;5133534;27;20457;-72
2022/07/09 01:21:27;;;;;;;12.43;1.67;;;13.90;1.00;;;;;;5134223;27;20935;-71
2022/07/09 01:23:54;;;;;;;13.07;1.87;;;13.80;1.00;;;;;;5134529;27;20450;-72
2022/07/09 01:26:21;;;;;;;12.30;1.93;;;13.70;99.90;;;;;;5133762;27;20961;-71
2022/07/09 01:28:49;;;;;;;13.17;1.60;;;13.80;99.90;;;;;;5134074;27;20441;-71
2022/07/09 01:31:16;;;;;;;11.97;2.43;;;13.90;1.00;;;;;;5133547;27;20699;-71
2022/07/09 01:33:43;;;;;;;11.53;1.87;;;14.00;1.00;;;;;;5134051;27;20478;-72
2022/07/09 01:36:09;;;;;;;11.23;1.73;;;14.00;1.00;;;;;;5133303;27;20525;-73
2022/07/09 01:38:38;;;;;;;11.37;1.70;;;13.90;1.00;;;;;;5133909;27;20443;-71
2022/07/09 01:41:05;;;;;;;12.50;1.83;;;13.80;62.40;;;;;;5121087;27;20532;-72
2022/07/09 01:43:33;;;;;;;13.67;1.73;;;13.80;99.90;;;;;;5133981;27;20441;-73
2022/07/09 01:46:00;;;;;;;15.20;2.07;;;13.80;99.90;;;;;;5132812;27;20453;-73
2022/07/09 01:48:28;;;;;;;12.70;1.87;;;13.70;99.90;;;;;;5134080;27;20449;-73
2022/07/09 01:50:58;;;;;;;12.07;1.77;;;13.60;99.90;;;;;;5133765;27;20443;-72
2022/07/09 01:53:25;;;;;;;11.63;1.80;;;13.50;99.90;;;;;;5133230;27;20498;-73
2022/07/09 01:55:53;;;;;;;13.50;1.73;;;13.60;99.90;;;;;;5133510;27;20454;-73
2022/07/09 01:58:20;;;;;;;11.40;2.00;;;13.50;99.90;;;;;;5132933;27;20445;-72
2022/07/09 02:00:47;;;;;;;10.77;1.60;;;13.50;12.20;;;;;;5133506;27;20568;-72
2022/07/09 02:03:14;;;;;;;11.20;2.03;;;13.30;1.00;;;;;;5133093;27;20453;-72
2022/07/09 02:05:41;;;;;;;10.97;1.37;;;13.10;1.00;;;;;;5133167;27;20446;-72
2022/07/09 02:08:08;;;;;;;11.13;1.60;;;13.10;79.70;;;;;;5132570;27;20442;-72
2022/07/09 02:10:34;;;;;;;12.90;1.93;;;13.30;99.90;;;;;;5132706;27;20536;-72
2022/07/09 02:13:03;;;;;;;11.13;2.00;;;13.30;1.00;;;;;;5143078;27;20450;-73
2022/07/09 02:15:30;;;;;;;11.50;1.93;;;13.30;1.00;;;;;;5132797;27;20521;-73
2022/07/09 02:17:56;;;;;;;12.07;1.77;;;13.20;99.90;;;;;;5132946;27;20797;-73
2022/07/09 02:20:24;;;;;;;10.93;1.60;;;13.10;99.90;;;;;;5133596;27;20467;-72
2022/07/09 02:22:51;;;;;;;11.23;1.80;;;12.90;1.00;;;;;;5133541;27;20447;-72
2022/07/09 02:25:18;;;;;;;11.50;1.80;;;12.80;1.00;;;;;;5132860;27;20448;-72
2022/07/09 02:27:45;;;;;;;15.97;2.03;;;12.80;99.90;;;;;;5133143;27;20435;-72
2022/07/09 02:30:13;;;;;;;12.13;2.20;;;13.10;1.00;;;;;;5132007;27;20452;-72
2022/07/09 02:32:40;;;;;;;10.93;1.80;;;13.00;99.90;;;;;;5132753;27;20463;-71
2022/07/09 02:35:08;;;;;;;10.87;1.60;;;12.90;1.00;;;;;;5131774;27;20464;-72
2022/07/09 02:37:35;;;;;;;11.30;1.60;;;12.90;1.00;;;;;;5133276;27;20435;-72
2022/07/09 02:40:02;;;;;;;10.53;1.80;;;12.80;99.90;;;;;;5132367;27;20490;-72
2022/07/09 02:42:29;;;;;;;12.67;1.67;;;12.70;99.90;;;;;;5132897;27;20820;-72
2022/07/09 02:44:56;;;;;;;11.00;2.20;;;12.90;1.00;;;;;;5132344;27;20445;-72
2022/07/09 02:47:24;;;;;;;10.47;1.80;;;12.80;34.20;;;;;;5132486;27;20938;-72
2022/07/09 02:49:51;;;;;;;12.50;2.17;;;12.80;99.90;;;;;;5132655;27;20447;-72
2022/07/09 02:52:18;;;;;;;10.30;1.87;;;12.60;99.90;;;;;;5131946;27;20766;-72
2022/07/09 02:54:44;;;;;;;10.37;2.10;;;12.60;1.00;;;;;;5132575;27;20431;-72
2022/07/09 02:57:13;;;;;;;9.70;1.90;;;12.50;1.00;;;;;;5132182;27;20518;-72
2022/07/09 02:59:39;;;;;;;19.80;2.20;;;12.50;1.00;;;;;;5131894;27;20502;-72
2022/07/09 03:02:06;;;;;;;9.33;1.87;;;12.40;1.00;;;;;;5132160;27;20449;-72
2022/07/09 03:04:34;;;;;;;11.50;2.47;;;12.30;1.00;;;;;;5132079;27;20446;-71
2022/07/09 03:07:01;;;;;;;10.30;1.80;;;12.30;1.00;;;;;;5131907;27;20441;-72
2022/07/09 03:09:28;;;;;;;8.80;1.53;;;12.20;1.00;;;;;;5132308;27;20490;-71
2022/07/09 03:11:56;;;;;;;9.87;2.00;;;12.30;1.00;;;;;;5140407;27;20493;-71
2022/07/09 03:14:22;;;;;;;9.63;1.70;;;12.30;1.00;;;;;;5130576;27;20443;-71
2022/07/09 03:16:49;;;;;;;8.90;1.50;;;12.30;1.00;;;;;;5132692;27;20526;-72
2022/07/09 03:19:16;;;;;;;8.63;1.33;;;12.30;1.00;;;;;;5131067;27;20822;-72
2022/07/09 03:21:44;;;;;;;8.50;1.47;;;12.30;1.00;;;;;;5132277;27;20449;-71
2022/07/09 03:24:12;;;;;;;9.50;1.97;;;12.60;1.00;;;;;;5131311;27;20451;-72
2022/07/09 03:26:39;;;;;;;8.70;1.67;;;12.80;99.90;;;;;;5132795;27;20451;-72
2022/07/09 03:29:07;;;;;;;9.63;2.10;;;12.90;1.00;;;;;;5131589;27;20444;-72
2022/07/09 03:31:34;;;;;;;8.67;1.63;;;12.90;1.00;;;;;;5133469;27;20451;-71
2022/07/09 03:34:01;;;;;;;13.83;1.67;;;12.90;99.90;;;;;;5131493;28;20474;-72
2022/07/09 03:36:28;;;;;;;8.87;1.70;;;12.90;1.00;;;;;;5132600;28;20458;-71
2022/07/09 03:38:56;;;;;;;10.27;1.70;;;12.90;99.90;;;;;;5134985;28;20443;-71
2022/07/09 03:41:23;;;;;;;9.67;2.47;;;13.10;99.90;;;;;;5139369;28;20547;-72
2022/07/09 03:43:50;;;;;;;10.27;2.13;;;13.00;99.90;;;;;;5132059;28;20805;-71
2022/07/09 03:46:17;;;;;;;9.33;1.70;;;12.90;1.00;;;;;;5132390;28;20435;-71
2022/07/09 03:48:44;;;;;;;10.50;2.60;;;12.80;1.00;;;;;;5132209;28;20534;-71
2022/07/09 03:51:11;;;;;;;10.00;2.00;;;12.90;99.90;;;;;;5131302;28;20802;-71
2022/07/09 03:53:38;;;;;;;9.33;1.70;;;12.90;1.00;;;;;;5132000;28;20856;-71
2022/07/09 03:56:07;;;;;;;9.70;1.77;;;12.90;1.00;;;;;;5130836;28;20534;-72
2022/07/09 03:58:34;;;;;;;9.10;1.50;;;13.00;1.00;;;;;;5131848;28;20447;-72
2022/07/09 04:01:00;;;;;;;9.50;1.73;;;12.90;1.00;;;;;;5131125;28;20482;-72
2022/07/09 04:03:27;;;;;;;9.50;2.10;;;12.90;1.00;;;;;;5131443;28;20527;-72
2022/07/09 04:05:54;;;;;;;9.50;2.03;;;12.70;46.30;;;;;;5131611;28;20438;-71
2022/07/09 04:08:21;;;;;;;9.40;2.13;;;12.90;99.90;;;;;;5131904;28;20540;-72
2022/07/09 04:10:48;;;;;;;9.47;2.10;;;13.00;99.90;;;;;;5132169;28;20922;-72
2022/07/09 04:13:16;;;;;;;11.03;1.80;;;12.80;99.90;;;;;;5130505;28;20443;-72
2022/07/09 04:15:43;;;;;;;9.20;1.60;;;12.90;1.00;;;;;;5131525;28;20439;-72
2022/07/09 04:18:10;;;;;;;9.80;1.60;;;13.20;99.90;;;;;;5131014;28;20960;-72
2022/07/09 04:20:37;;;;;;;9.40;1.70;;;13.30;1.00;;;;;;5131298;28;20572;-72
2022/07/09 04:23:04;;;;;;;9.40;1.80;;;13.20;8.60;;;;;;5130613;28;20444;-72
2022/07/09 04:25:30;;;;;;;9.23;1.60;;;13.40;1.00;;;;;;5131076;28;20451;-72
2022/07/09 04:27:58;;;;;;;10.10;1.93;;;13.20;1.00;;;;;;5127042;28;20451;-72
2022/07/09 04:30:27;;;;;;;10.70;1.70;;;13.00;1.00;;;;;;5131569;28;20455;-72
2022/07/09 04:32:54;;;;;;;9.20;1.57;;;13.00;99.90;;;;;;5131400;27;20918;-72
2022/07/09 04:35:21;;;;;;;10.07;1.60;;;12.90;1.00;;;;;;5134305;27;20440;-72
2022/07/09 04:37:48;;;;;;;9.83;1.90;;;12.90;1.00;;;;;;5134759;27;20538;-72
2022/07/09 04:40:15;;;;;;;9.10;1.60;;;13.00;1.00;;;;;;5134536;27;20475;-72
2022/07/09 04:42:41;;;;;;;10.07;1.60;;;13.00;1.00;;;;;;5134621;27;20440;-72
2022/07/09 04:45:09;;;;;;;10.30;2.17;;;13.00;1.00;;;;;;5133305;27;20436;-72
2022/07/09 04:47:38;;;;;;;8.50;1.50;;;12.90;1.00;;;;;;5134709;27;20458;-72
2022/07/09 04:50:05;;;;;;;9.70;2.33;;;12.90;99.90;;;;;;5133834;27;20454;-73
2022/07/09 04:52:32;;;;;;;9.40;2.13;;;12.90;99.90;;;;;;5134728;27;20450;-72
2022/07/09 04:54:59;;;;;;;8.83;2.00;;;13.00;1.00;;;;;;5133561;27;20443;-73
2022/07/09 04:57:25;;;;;;;8.57;1.70;;;12.90;1.00;;;;;;5135066;27;20450;-72
2022/07/09 04:59:52;;;;;;;8.93;1.77;;;13.10;1.80;;;;;;5134629;27;20479;-72
2022/07/09 05:02:19;;;;;;;9.60;1.53;;;13.20;31.40;;;;;;5134197;27;20565;-72
2022/07/09 05:04:47;;;;;;;8.93;1.87;;;13.30;1.00;;;;;;5134375;27;20889;-72
2022/07/09 05:07:14;;;;;;;9.00;1.80;;;13.30;1.00;;;;;;5134233;27;20452;-72
2022/07/09 05:09:41;;;;;;;9.33;1.77;;;13.60;99.90;;;;;;5134557;27;20450;-73
2022/07/09 05:12:10;;;;;;;9.23;1.70;;;13.70;99.90;;;;;;5144058;27;20543;-72
2022/07/09 05:14:37;;;;;;;10.40;1.90;;;13.80;22.50;;;;;;5136212;27;20966;-71
2022/07/09 05:17:05;;;;;;;10.67;1.87;;;13.80;35.80;;;;;;5133596;27;20466;-73
2022/07/09 05:19:31;;;;;;;9.37;1.93;;;13.90;1.00;;;;;;5134192;27;20550;-72
2022/07/09 05:22:01;;;;;;;9.80;1.90;;;13.90;99.90;;;;;;5133913;27;20453;-73
2022/07/09 05:24:28;;;;;;;10.57;2.50;;;14.00;99.90;;;;;;5133740;27;20453;-72
2022/07/09 05:26:55;;;;;;;9.10;1.70;;;14.10;99.90;;;;;;5134282;27;20451;-72
2022/07/09 05:29:22;;;;;;;10.30;2.03;;;14.20;1.00;;;;;;5134123;27;20487;-72
2022/07/09 05:31:49;;;;;;;9.60;1.77;;;14.20;1.30;;;;;;5134453;27;20536;-73
2022/07/09 05:34:17;;;;;;;10.20;1.90;;;14.30;1.00;;;;;;5132928;27;21316;-72
2022/07/09 05:36:44;;;;;;;10.33;1.83;;;14.70;99.90;;;;;;5134122;27;20457;-73
2022/07/09 05:39:12;;;;;;;10.60;2.10;;;14.90;1.00;;;;;;5134181;27;20442;-73
2022/07/09 05:41:39;;;;;;;11.73;1.87;;;15.20;99.90;;;;;;5134104;27;20996;-73
2022/07/09 05:44:05;;;;;;;12.20;2.67;;;15.20;99.90;;;;;;5133008;27;20445;-73
2022/07/09 05:46:32;;;;;;;11.90;1.33;;;15.50;99.90;;;;;;5133378;27;20818;-71
2022/07/09 05:48:59;;;;;;;10.80;1.83;;;15.60;12.30;;;;;;5130179;27;20449;-72
2022/07/09 05:51:26;;;;;;;12.03;2.20;;;15.60;1.00;;;;;;5133805;27;20964;-71
2022/07/09 05:53:53;;;;;;;13.13;1.93;;;15.90;1.00;;;;;;5133828;27;20481;-73
2022/07/09 05:56:21;;;;;;;12.13;2.13;;;15.90;1.00;;;;;;5133450;27;20539;-72
2022/07/09 05:58:48;;;;;;;11.90;1.73;;;16.00;1.00;;;;;;5135872;27;20443;-72
2022/07/09 06:01:15;;;;;;;12.17;1.97;;;16.10;1.00;;;;;;5134727;27;20478;-73
2022/07/09 06:03:42;;;;;;;11.77;1.97;;;16.30;1.00;;;;;;5131424;27;20440;-72
2022/07/09 06:06:10;;;;;;;11.73;1.77;;;16.50;1.00;;;;;;5134510;27;20447;-74
2022/07/09 06:08:37;;;;;;;10.87;2.10;;;16.60;1.00;;;;;;5135882;27;20544;-74
2022/07/09 06:11:04;;;;;;;10.90;1.70;;;16.40;1.00;;;;;;5134964;27;20448;-73
2022/07/09 06:13:32;;;;;;;12.13;1.70;;;16.50;1.00;;;;;;5145670;27;20456;-73
2022/07/09 06:15:59;;;;;;;11.50;1.70;;;16.70;1.00;;;;;;5133130;27;20461;-71
2022/07/09 06:18:26;;;;;;;12.77;1.67;;;16.70;1.00;;;;;;5133913;27;20874;-71
2022/07/09 06:20:53;;;;;;;11.77;2.00;;;16.80;1.00;;;;;;5133008;27;20557;-72
2022/07/09 06:23:20;;;;;;;14.10;1.90;;;17.00;99.90;;;;;;5133097;27;20519;-71
2022/07/09 06:25:47;;;;;;;11.40;1.83;;;17.00;99.90;;;;;;5132728;27;20504;-71
2022/07/09 06:28:14;;;;;;;11.50;1.83;;;17.10;99.90;;;;;;5132811;27;20449;-71
2022/07/09 06:30:43;;;;;;;11.80;1.70;;;17.10;99.90;;;;;;5133326;27;20458;-72
2022/07/09 06:33:10;;;;;;;12.87;1.80;;;17.30;99.90;;;;;;5132795;27;20504;-72
2022/07/09 06:35:37;;;;;;;11.93;1.63;;;17.40;99.90;;;;;;5132865;27;20457;-72
2022/07/09 06:38:04;;;;;;;12.30;1.70;;;;;;;;;;5132571;27;20443;-72
2022/07/09 06:40:32;;;;;;;14.60;2.80;;;;;;;;;;5132470;27;20485;-72
2022/07/09 06:42:59;;;;;;;12.40;2.20;;;;;;;;;;5131721;27;20442;-72
2022/07/09 06:45:26;;;;;;;11.70;1.97;;;;;;;;;;5131979;27;20451;-72
2022/07/09 06:47:55;;;;;;;11.43;1.70;;;;;;;;;;5132093;27;20967;-77
2022/07/09 06:50:22;;;;;;;11.23;1.23;;;;;;;;;;5133379;27;20465;-78
2022/07/09 06:52:49;;;;;;;11.57;1.70;;;;;;;;;;5133098;27;20802;-76
2022/07/09 06:55:16;;;;;;;11.17;1.50;;;;;;;;;;5131970;27;20758;-77
2022/07/09 06:57:43;;;;;;;11.40;1.50;;;;;;;;;;5132785;27;20462;-74
2022/07/09 07:00:11;;;;;;;11.70;1.60;;;;;;;;;;5131917;27;20443;-73
2022/07/09 07:02:38;;;;;;;11.37;1.60;;;;;;;;;;5131771;27;20455;-71
2022/07/09 07:05:07;;;;;;;11.90;1.73;;;17.50;99.90;;;;;;5131096;27;20449;-66
2022/07/09 07:07:34;;;;;;;12.00;1.73;;;18.50;99.90;;;;;;5132722;27;20450;-68
2022/07/09 07:10:01;;;;;;;12.30;2.30;;;18.70;99.90;;;;;;5132008;27;20449;-67
2022/07/09 07:12:28;;;;;;;12.47;2.17;;;18.90;99.90;;;;;;5145291;27;20457;-67
2022/07/09 07:14:55;;;;;;;13.07;1.63;;;19.10;99.90;;;;;;5131311;27;20538;-65
2022/07/09 07:17:21;;;;;;;12.10;1.90;;;19.30;99.90;;;;;;5132281;27;20522;-63
2022/07/09 07:19:48;;;;;;;12.50;1.97;;;19.30;99.90;;;;;;5132125;27;20449;-65
2022/07/09 07:22:17;;;;;;;12.37;1.87;;;19.40;99.90;;;;;;5131018;27;20564;-65
2022/07/09 07:24:43;;;;;;;12.30;1.90;;;19.50;99.90;;;;;;5131060;27;20528;-68
2022/07/09 07:27:10;;;;;;;12.33;1.80;;;19.50;99.90;;;;;;5125254;27;20479;-67
2022/07/09 07:29:37;;;;;;;12.40;1.60;;;19.50;99.90;;;;;;5118954;27;20441;-68
2022/07/09 07:32:04;;;;;;;12.90;1.50;;;19.60;99.90;;;;;;5131410;27;20447;-68
2022/07/09 07:34:31;;;;;;;50.80;24.37;;;19.60;99.90;;;;;;5131698;27;20478;-69
2022/07/09 07:36:58;;;;;;;14.90;3.30;;;19.70;99.90;;;;;;5131686;28;20797;-68
2022/07/09 07:39:26;;;;;;;13.03;2.03;;;19.80;99.90;;;;;;5132220;28;20451;-63
2022/07/09 07:41:53;;;;;;;13.43;1.70;;;20.00;99.90;;;;;;5131733;28;20510;-68
2022/07/09 07:44:20;;;;;;;13.83;2.33;;;20.00;99.90;;;;;;5130801;28;20439;-69
2022/07/09 07:46:47;;;;;;;12.80;1.83;;;20.00;99.90;;;;;;5131696;28;20457;-68
2022/07/09 07:49:14;;;;;;;12.77;1.77;;;20.00;99.90;;;;;;5130748;28;20443;-70
2022/07/09 07:51:42;;;;;;;15.00;1.80;;;20.00;99.90;;;;;;5131874;28;20504;-70
2022/07/09 07:54:09;;;;;;;13.70;1.50;;;20.10;99.90;;;;;;5130581;28;20443;-68
2022/07/09 07:56:39;;;;;;;12.47;2.07;;;20.10;99.90;;;;;;5131690;28;20534;-68
2022/07/09 07:59:06;;;;;;;12.13;1.67;;;20.30;99.90;;;;;;5131028;28;20459;-68
2022/07/09 08:01:33;;;;;;;13.73;1.53;;;20.30;99.90;;;;;;5131486;28;20577;-66
2022/07/09 08:04:00;;;;;;;12.83;1.50;;;20.40;99.90;;;;;;5129210;28;20439;-67
2022/07/09 08:06:27;;;;;;;12.83;1.43;;;20.40;99.90;;;;;;5131447;28;20451;-68
2022/07/09 08:08:54;;;;;;;12.10;1.67;;;20.50;99.90;;;;;;5133303;27;20447;-67
2022/07/09 08:11:21;;;;;;;12.53;1.87;;;20.60;99.90;;;;;;5138655;27;20571;-67
2022/07/09 08:13:49;;;;;;;11.40;1.13;;;20.60;99.90;;;;;;5137641;27;20447;-67
2022/07/09 08:16:16;;;;;;;12.30;1.37;;;20.80;99.90;;;;;;5134928;27;21108;-67
2022/07/09 08:18:42;;;;;;;11.20;1.20;;;20.90;99.90;;;;;;5135770;27;20451;-65
2022/07/09 08:21:09;;;;;;;11.70;1.50;;;20.90;99.90;;;;;;5134699;27;20478;-66
2022/07/09 08:23:51;;;;;;;10.80;1.17;;;20.90;99.90;;;;;;5134732;27;20457;-66
2022/07/09 08:26:19;;;;;;;11.47;1.83;;;21.20;99.90;;;;;;5121983;27;20439;-66
2022/07/09 08:28:46;;;;;;;11.50;1.60;;;21.40;99.90;;;;;;5134542;27;20447;-65
2022/07/09 08:31:14;;;;;;;14.07;2.03;;;21.50;99.90;;;;;;5134810;27;20936;-67
2022/07/09 08:33:41;;;;;;;10.90;1.37;;;21.50;99.90;;;;;;5134698;27;20832;-66
2022/07/09 08:36:08;;;;;;;13.60;2.40;;;21.50;99.90;;;;;;5135102;27;20443;-66
2022/07/09 08:38:34;;;;;;;11.97;2.00;;;21.60;99.90;;;;;;5135191;27;20453;-66
2022/07/09 08:41:04;;;;;;;14.70;1.80;;;21.50;99.90;;;;;;5134896;27;20509;-66
2022/07/09 08:43:33;;;;;;;15.23;1.80;;;21.60;99.40;;;;;;5134657;27;20446;-66
2022/07/09 08:46:00;;;;;;;12.70;1.80;;;21.70;99.70;;;;;;5134392;27;20781;-64
2022/07/09 08:48:28;;;;;;;11.63;1.60;;;21.70;99.50;;;;;;5134955;27;20442;-65
2022/07/09 08:50:58;;;;;;;11.10;1.10;;;21.70;98.60;;;;;;5135127;27;20806;-65
2022/07/09 08:53:27;;;;;;;11.50;1.60;;;21.80;96.50;;;;;;5134224;27;20442;-65
2022/07/09 08:55:55;;;;;;;11.40;1.43;;;21.90;95.50;;;;;;5134033;27;20443;-66
2022/07/09 08:58:22;;;;;;;13.77;1.87;;;22.00;94.60;;;;;;5134803;27;20447;-68
2022/07/09 09:00:49;;;;;;;11.63;1.33;;;22.10;91.10;;;;;;5134548;27;20443;-63
2022/07/09 09:03:17;;;;;;;11.70;1.60;;;22.20;91.10;;;;;;5133240;27;20492;-72
2022/07/09 09:05:45;;;;;;;15.40;1.40;;;22.40;90.00;;;;;;5134118;27;20487;-66
2022/07/09 09:08:19;;;;;;;12.20;1.60;;;22.40;81.60;;;;;;5134046;27;20462;-66
2022/07/09 09:10:47;;;;;;;12.80;1.83;;;;;;;;;;5132949;27;21031;-73
2022/07/09 09:13:16;;;;;;;13.27;1.73;;;;;;;;;;5136104;27;20460;-73
2022/07/09 09:15:43;;;;;;;11.57;1.20;;;22.60;75.80;;;;;;5132533;27;20455;-74
2022/07/09 09:18:10;;;;;;;12.37;1.10;;;22.90;48.10;;;;;;5133903;27;20462;-75
2022/07/09 09:20:37;;;;;;;12.70;1.20;;;22.90;53.60;;;;;;5132422;27;20554;-70
2022/07/09 09:23:10;;;;;;;13.83;1.10;;;23.10;48.30;;;;;;5133493;27;20494;-73
2022/07/09 09:25:38;;;;;;;12.97;1.20;;;23.10;44.00;;;;;;5131748;27;20954;-74
2022/07/09 09:28:05;;;;;;;15.90;1.50;;;23.30;43.30;;;;;;5132949;27;20451;-73
2022/07/09 09:30:32;;;;;;;14.23;1.33;;;23.30;37.80;;;;;;5130668;27;20458;-72
2022/07/09 09:33:00;;;;;;;14.50;1.23;;;23.60;35.70;;;;;;5132732;27;20972;-73
2022/07/09 09:35:28;;;;;;;14.87;1.60;;;23.50;36.50;;;;;;5132269;27;20478;-73
2022/07/09 09:37:56;;;;;;;13.73;1.60;;;23.70;35.90;;;;;;5133427;27;20466;-72
2022/07/09 09:40:24;;;;;;;14.93;1.43;;;23.50;32.50;;;;;;5118875;27;20463;-74
2022/07/09 09:42:52;;;;;;;14.10;1.80;;;23.50;30.10;;;;;;5130462;27;20482;-74
2022/07/09 09:45:20;;;;;;;16.30;1.47;;;23.80;29.80;;;;;;5128216;27;20458;-74
2022/07/09 09:47:48;;;;;;;13.80;1.53;;;23.90;27.80;;;;;;5130286;27;20442;-73
2022/07/09 09:50:19;;;;;;;15.33;1.60;;;24.00;26.80;;;;;;5127493;27;20710;-72
2022/07/09 09:52:48;;;;;;;12.60;1.10;;;24.00;25.20;;;;;;5129979;27;20462;-73
2022/07/09 09:55:16;;;;;;;12.90;1.57;;;23.70;23.70;;;;;;5130106;27;20439;-72
2022/07/09 09:57:44;;;;;;;13.20;1.60;;;23.80;22.50;;;;;;5127769;27;20451;-72
2022/07/09 10:00:13;;;;;;;12.90;1.53;;;23.90;22.80;;;;;;5128829;27;20815;-73
2022/07/09 10:02:43;;;;;;;12.67;1.30;;;24.50;21.70;;;;;;5128739;27;20917;-73
2022/07/09 10:05:10;;;;;;;12.17;1.30;;;24.60;18.30;;;;;;5129865;27;20451;-73
2022/07/09 10:07:37;;;;;;;12.80;1.70;;;24.40;16.60;;;;;;5129426;27;21677;-74
2022/07/09 10:10:07;;;;;;;12.50;1.60;;;24.70;14.30;;;;;;5127186;27;20958;-71
2022/07/09 10:12:35;;;;;;;15.40;1.63;;;24.90;10.60;;;;;;5129927;27;20466;-72
2022/07/09 10:15:19;;;;;;;13.90;1.70;;;24.60;10.70;;;;;;5126911;27;20461;-74
2022/07/09 10:17:46;;;;;;;13.27;1.73;;;24.60;7.50;;;;;;5130065;27;20442;-74
2022/07/09 10:20:13;;;;;;;12.87;1.20;;;24.80;3.50;;;;;;5127570;27;20822;-75
2022/07/09 10:22:41;;;;;;;14.77;1.33;;;24.80;1.20;;;;;;5129797;27;20557;-74
2022/07/09 10:25:09;;;;;;;14.33;1.20;;;24.40;1.00;;;;;;5130320;27;20508;-73
2022/07/09 10:27:43;;;;;;;13.00;1.33;;;24.40;1.00;;;;;;5127973;27;20467;-73
2022/07/09 10:30:23;;;;;;;13.07;1.40;;;24.70;1.00;;;;;;5128416;27;20865;-73
2022/07/09 10:33:02;;;;;;;12.70;1.33;;;24.60;1.00;;;;;;5129570;27;20480;-73
2022/07/09 10:35:30;;;;;;;13.30;1.37;;;24.60;1.00;;;;;;5130080;27;20439;-73
2022/07/09 10:37:56;;;;;;;12.37;1.20;;;24.60;1.00;;;;;;5129918;27;20462;-72
2022/07/09 10:40:24;;;;;;;12.67;1.30;;;24.50;1.00;;;;;;5129729;27;20474;-73
2022/07/09 10:42:59;;;;;;;14.27;2.17;;;24.30;1.00;;;;;;5134997;27;20546;-72
2022/07/09 10:45:31;;;;;;;13.60;1.20;;;24.20;1.00;;;;;;5134001;27;20468;-72
2022/07/09 10:47:59;;;;;;;12.53;1.17;;;24.50;1.00;;;;;;5131340;27;21021;-73
2022/07/09 10:50:28;;;;;;;12.73;1.33;;;24.90;1.00;;;;;;5129354;27;20489;-73
2022/07/09 10:52:55;;;;;;;12.73;1.10;;;24.90;1.00;;;;;;5129814;27;20450;-74
2022/07/09 10:55:24;;;;;;;13.27;1.30;;;25.00;1.00;;;;;;5129256;27;20449;-73
2022/07/09 10:57:52;;;;;;;13.50;1.10;;;25.40;1.00;;;;;;5129670;27;20459;-71
2022/07/09 11:00:20;;;;;;;12.67;1.20;;;;;;;;;;5128802;27;20447;-73
2022/07/09 11:02:58;;;;;;;12.87;1.10;;;;;;;;;;5129297;27;20513;-73
2022/07/09 11:05:26;;;;;;;12.90;1.27;;;;;;;;;;5117238;27;20816;-71
2022/07/09 11:08:00;;;;;;;13.90;1.47;;;;;;;;;;5129320;27;20823;-72
2022/07/09 11:10:28;;;;;;;11.77;1.20;;;;;;;;;;5129705;27;20438;-72
2022/07/09 11:12:55;;;;;;;11.90;1.10;;;;;;;;;;5142986;27;20463;-72
2022/07/09 11:15:23;;;;;;;11.40;1.23;;;;;;;;;;5127799;27;20812;-72
2022/07/09 11:17:58;;;;;;;11.90;1.87;;;;;;;;;;5128152;27;20435;-72
2022/07/09 11:20:25;;;;;;;11.70;1.40;;;25.60;1.00;;;;;;5121701;27;20458;-72
2022/07/09 11:22:56;;;;;;;12.60;1.37;;;25.10;1.00;;;;;;5128571;27;20505;-72
2022/07/09 11:25:24;;;;;;;11.80;1.30;;;24.90;1.00;;;;;;5129016;27;20527;-73
2022/07/09 11:27:51;;;;;;;11.57;1.20;;;24.70;1.00;;;;;;5129060;27;20443;-71
2022/07/09 11:30:18;;;;;;;15.60;4.50;;;24.90;1.00;;;;;;5127846;27;20469;-73
2022/07/09 11:32:45;;;;;;;12.07;1.40;;;24.90;1.00;;;;;;5128776;27;20454;-73
2022/07/09 11:35:25;;;;;;;12.10;1.20;;;24.60;1.00;;;;;;5128056;27;20482;-72
2022/07/09 11:37:52;;;;;;;13.00;1.40;;;24.60;1.00;;;;;;5117286;28;20458;-72
2022/07/09 11:40:19;;;;;;;13.77;1.60;;;24.60;1.00;;;;;;5128087;27;20446;-72
2022/07/09 11:42:47;;;;;;;13.10;1.57;;;24.60;1.00;;;;;;5130322;27;20493;-72
2022/07/09 11:45:13;;;;;;;12.57;1.00;;;24.70;1.00;;;;;;5132687;27;20442;-72
2022/07/09 11:47:40;;;;;;;12.70;1.30;;;24.70;1.00;;;;;;5132305;27;20458;-73
2022/07/09 11:50:09;;;;;;;12.90;1.30;;;24.80;1.00;;;;;;5130645;27;20457;-73
2022/07/09 11:52:43;;;;;;;13.20;1.37;;;25.00;1.00;;;;;;5129779;27;20470;-72
2022/07/09 11:55:11;;;;;;;12.53;1.10;;;25.30;1.00;;;;;;5132985;27;20935;-71
2022/07/09 11:57:39;;;;;;;13.87;1.20;;;25.40;1.00;;;;;;5134042;27;20541;-73
2022/07/09 12:00:08;;;;;;;12.47;1.40;;;25.50;1.00;;;;;;5132597;27;20466;-70
2022/07/09 12:02:36;;;;;;;11.90;1.00;;;25.90;1.00;;;;;;5126614;27;20937;-73
2022/07/09 12:05:05;;;;;;;11.90;1.00;;;26.40;1.00;;;;;;5131487;27;20504;-73
2022/07/09 12:07:33;;;;;;;11.10;1.13;;;26.10;1.00;;;;;;5133490;27;20466;-71
2022/07/09 12:10:02;;;;;;;11.10;1.00;;;25.60;1.00;;;;;;5134516;27;20447;-71
2022/07/09 12:12:29;;;;;;;11.00;1.27;;;25.70;1.00;;;;;;5135639;27;20963;-71
2022/07/09 12:14:56;;;;;;;11.07;1.20;;;26.00;1.00;;;;;;5130860;27;20473;-72
2022/07/09 12:17:25;;;;;;;11.00;1.40;;;26.00;1.00;;;;;;5133750;27;20554;-71
2022/07/09 12:19:52;;;;;;;11.30;1.23;;;25.60;1.00;;;;;;5134333;27;20454;-72
2022/07/09 12:22:19;;;;;;;10.67;1.27;;;25.50;1.00;;;;;;5132806;27;20973;-71
2022/07/09 12:24:46;;;;;;;10.67;0.90;;;25.40;1.00;;;;;;5133589;27;20466;-72
2022/07/09 12:27:14;;;;;;;10.73;1.10;;;25.40;1.00;;;;;;5127054;27;20450;-71
2022/07/09 12:29:41;;;;;;;11.97;1.30;;;25.10;1.00;;;;;;5133363;27;20566;-71
2022/07/09 12:32:08;;;;;;;10.93;1.20;;;25.40;1.00;;;;;;5132923;27;20587;-71
2022/07/09 12:34:36;;;;;;;10.87;1.10;;;25.30;1.00;;;;;;5129909;27;20550;-72
2022/07/09 12:37:03;;;;;;;11.30;1.20;;;25.20;1.00;;;;;;5131098;27;20462;-71
2022/07/09 12:39:29;;;;;;;10.90;1.10;;;25.40;1.00;;;;;;5134161;27;20530;-73
2022/07/09 12:41:58;;;;;;;10.97;1.33;;;26.00;1.00;;;;;;5131681;27;20459;-73
2022/07/09 12:44:26;;;;;;;11.50;1.40;;;26.10;1.00;;;;;;5134559;27;20847;-72
2022/07/09 12:46:53;;;;;;;11.27;1.03;;;25.80;1.00;;;;;;5133481;27;20953;-73
2022/07/09 12:49:20;;;;;;;11.00;1.30;;;26.20;1.00;;;;;;5134206;27;20453;-72
2022/07/09 12:51:47;;;;;;;11.47;1.20;;;26.50;1.00;;;;;;5132677;27;20450;-72